createdAt,value
2023-02-26T00:00:25.331Z,2.77
2023-02-26T00:01:25.356Z,2.73
2023-02-26T00:02:25.355Z,2.69
2023-02-26T00:03:25.349Z,2.66
2023-02-26T00:04:26.274Z,2.62
2023-02-26T00:05:25.953Z,2.59
2023-02-26T00:06:26.571Z,2.55
2023-02-26T00:07:25.934Z,2.52
2023-02-26T00:08:25.947Z,2.48
2023-02-26T00:09:25.913Z,2.46
2023-02-26T00:10:25.264Z,2.43
2023-02-26T00:11:25.915Z,2.39
2023-02-26T00:12:25.889Z,2.37
2023-02-26T00:13:25.891Z,2.35
2023-02-26T00:14:25.879Z,2.32
2023-02-26T00:15:26.120Z,2.30
2023-02-26T00:16:26.195Z,2.28
2023-02-26T00:17:26.073Z,2.26
2023-02-26T00:18:26.080Z,2.25
2023-02-26T00:19:26.063Z,2.22
2023-02-26T00:20:25.842Z,2.21
2023-02-26T00:21:25.845Z,2.19
2023-02-26T00:22:25.783Z,2.17
2023-02-26T00:23:26.042Z,2.15
2023-02-26T00:24:26.022Z,2.13
2023-02-26T00:25:25.763Z,2.10
2023-02-26T00:26:26.480Z,2.09
2023-02-26T00:27:25.723Z,2.08
2023-02-26T00:28:26.029Z,2.07
2023-02-26T00:29:25.712Z,2.06
2023-02-26T00:30:25.984Z,2.05
2023-02-26T00:31:25.976Z,2.03
2023-02-26T00:32:25.703Z,2.03
2023-02-26T00:33:25.945Z,2.02
2023-02-26T00:34:25.928Z,2.01
2023-02-26T00:35:25.936Z,2.00
2023-02-26T00:36:26.079Z,1.99
2023-02-26T00:37:25.944Z,1.97
2023-02-26T00:38:25.617Z,1.96
2023-02-26T00:39:25.606Z,1.95
2023-02-26T00:40:25.614Z,1.94
2023-02-26T00:41:25.877Z,1.93
2023-02-26T00:42:25.845Z,1.92
2023-02-26T00:43:25.558Z,1.92
2023-02-26T00:44:25.816Z,1.91
2023-02-26T00:45:25.544Z,1.89
2023-02-26T00:46:25.998Z,1.89
2023-02-26T00:47:25.804Z,1.88
2023-02-26T00:48:25.796Z,1.86
2023-02-26T00:49:25.503Z,1.86
2023-02-26T00:50:25.756Z,1.85
2023-02-26T00:51:25.507Z,1.84
2023-02-26T00:52:25.750Z,1.82
2023-02-26T00:53:25.459Z,1.81
2023-02-26T00:54:25.737Z,1.80
2023-02-26T00:55:27.245Z,1.77
2023-02-26T00:56:25.940Z,1.75
2023-02-26T00:57:25.682Z,1.73
2023-02-26T00:58:25.409Z,1.70
2023-02-26T00:59:24.735Z,1.69
2023-02-26T01:00:24.726Z,1.67
2023-02-26T01:03:39.104Z,1.50
2023-02-26T01:04:39.739Z,1.52
2023-02-26T01:05:39.738Z,1.49
2023-02-26T01:06:39.039Z,1.46
2023-02-26T01:07:39.708Z,1.44
2023-02-26T01:08:39.697Z,1.42
2023-02-26T01:09:39.173Z,1.40
2023-02-26T01:10:38.994Z,1.39
2023-02-26T01:11:39.019Z,1.38
2023-02-26T01:12:39.665Z,1.37
2023-02-26T01:13:39.647Z,1.36
2023-02-26T01:14:38.958Z,1.35
2023-02-26T01:15:39.002Z,1.35
2023-02-26T01:16:38.958Z,1.35
2023-02-26T01:17:40.893Z,1.36
2023-02-26T01:18:40.310Z,1.36
2023-02-26T01:19:40.588Z,1.37
2023-02-26T01:20:39.588Z,1.36
2023-02-26T01:21:39.484Z,1.36
2023-02-26T01:22:39.569Z,1.36
2023-02-26T01:23:39.142Z,1.35
2023-02-26T01:24:41.268Z,1.34
2023-02-26T01:25:39.085Z,1.34
2023-02-26T01:26:39.491Z,1.33
2023-02-26T01:27:39.499Z,1.33
2023-02-26T01:28:39.488Z,1.34
2023-02-26T01:29:38.830Z,1.33
2023-02-26T01:30:38.835Z,1.32
2023-02-26T01:31:39.596Z,1.32
2023-02-26T01:32:39.495Z,1.32
2023-02-26T01:33:38.760Z,1.32
2023-02-26T01:34:39.428Z,1.32
2023-02-26T01:35:39.421Z,1.31
2023-02-26T01:36:39.381Z,1.31
2023-02-26T01:37:39.392Z,1.31
2023-02-26T01:38:39.384Z,1.30
2023-02-26T01:39:38.715Z,1.30
2023-02-26T01:40:38.723Z,1.29
2023-02-26T01:41:38.708Z,1.29
2023-02-26T01:42:38.691Z,1.29
2023-02-26T01:43:39.327Z,1.28
2023-02-26T01:44:38.638Z,1.27
2023-02-26T01:45:39.315Z,1.27
2023-02-26T01:46:38.696Z,1.27
2023-02-26T01:47:39.384Z,1.26
2023-02-26T01:48:38.595Z,1.25
2023-02-26T01:49:38.830Z,1.25
2023-02-26T01:50:38.634Z,1.25
2023-02-26T01:51:39.569Z,1.23
2023-02-26T01:52:39.238Z,1.23
2023-02-26T01:53:38.547Z,1.23
2023-02-26T01:54:38.538Z,1.23
2023-02-26T01:55:39.220Z,1.22
2023-02-26T01:56:39.179Z,1.23
2023-02-26T01:57:38.508Z,1.23
2023-02-26T01:58:39.180Z,1.23
2023-02-26T01:59:38.483Z,1.23
2023-02-26T02:00:39.156Z,1.24
2023-02-26T02:01:39.138Z,1.24
2023-02-26T02:02:38.584Z,1.23
2023-02-26T02:03:39.174Z,1.23
2023-02-26T02:04:39.109Z,1.22
2023-02-26T02:05:39.101Z,1.21
2023-02-26T02:06:38.438Z,1.20
2023-02-26T02:07:38.442Z,1.21
2023-02-26T02:08:39.363Z,1.19
2023-02-26T02:09:39.058Z,1.18
2023-02-26T02:10:39.039Z,1.19
2023-02-26T02:11:39.036Z,1.18
2023-02-26T02:12:39.015Z,1.18
2023-02-26T02:13:38.351Z,1.17
2023-02-26T02:14:38.347Z,1.18
2023-02-26T02:15:38.325Z,1.18
2023-02-26T02:16:38.762Z,1.17
2023-02-26T02:17:38.448Z,1.18
2023-02-26T02:18:38.574Z,1.18
2023-02-26T02:19:38.336Z,1.16
2023-02-26T02:20:39.186Z,1.16
2023-02-26T02:21:39.726Z,1.15
2023-02-26T02:22:38.289Z,1.15
2023-02-26T02:23:38.638Z,1.14
2023-02-26T02:24:38.866Z,1.14
2023-02-26T02:25:38.266Z,1.14
2023-02-26T02:26:38.900Z,1.13
2023-02-26T02:27:38.852Z,1.13
2023-02-26T02:28:38.870Z,1.13
2023-02-26T02:29:38.844Z,1.12
2023-02-26T02:30:38.834Z,1.12
2023-02-26T02:31:38.282Z,1.11
2023-02-26T02:32:38.289Z,1.10
2023-02-26T02:33:38.143Z,1.09
2023-02-26T02:34:38.793Z,1.09
2023-02-26T02:35:38.778Z,1.09
2023-02-26T02:36:38.775Z,1.07
2023-02-26T02:37:38.749Z,1.06
2023-02-26T02:38:38.744Z,1.06
2023-02-26T02:39:38.740Z,1.05
2023-02-26T02:40:38.731Z,1.05
2023-02-26T02:41:38.722Z,1.04
2023-02-26T02:42:38.044Z,1.03
2023-02-26T02:43:38.018Z,1.03
2023-02-26T02:44:38.006Z,1.01
2023-02-26T02:45:38.759Z,1.01
2023-02-26T02:46:38.683Z,1.01
2023-02-26T02:47:38.634Z,1.00
2023-02-26T02:48:38.644Z,1.00
2023-02-26T02:49:37.947Z,0.99
2023-02-26T02:50:38.618Z,1.00
2023-02-26T02:51:38.613Z,0.98
2023-02-26T02:52:37.941Z,0.98
2023-02-26T02:53:38.589Z,0.98
2023-02-26T02:54:38.579Z,0.98
2023-02-26T02:55:37.913Z,0.97
2023-02-26T02:56:38.854Z,0.96
2023-02-26T02:57:38.542Z,0.97
2023-02-26T02:58:38.565Z,0.96
2023-02-26T02:59:38.544Z,0.97
2023-02-26T03:00:37.854Z,0.96
2023-02-26T03:01:38.509Z,0.96
2023-02-26T03:02:37.850Z,0.95
2023-02-26T03:03:38.490Z,0.94
2023-02-26T03:04:38.478Z,0.93
2023-02-26T03:05:38.467Z,0.92
2023-02-26T03:06:37.768Z,0.91
2023-02-26T03:07:38.440Z,0.91
2023-02-26T03:08:37.774Z,0.90
2023-02-26T03:09:38.452Z,0.90
2023-02-26T03:10:38.421Z,0.89
2023-02-26T03:11:40.227Z,0.88
2023-02-26T03:12:38.378Z,0.87
2023-02-26T03:13:38.381Z,0.87
2023-02-26T03:14:38.378Z,0.86
2023-02-26T03:15:38.639Z,0.85
2023-02-26T03:16:38.646Z,0.84
2023-02-26T03:17:38.632Z,0.82
2023-02-26T03:18:37.666Z,0.81
2023-02-26T03:19:38.592Z,0.81
2023-02-26T03:20:38.573Z,0.80
2023-02-26T03:21:38.304Z,0.79
2023-02-26T03:22:38.564Z,0.79
2023-02-26T03:23:38.285Z,0.79
2023-02-26T03:24:37.600Z,0.78
2023-02-26T03:25:37.594Z,0.78
2023-02-26T03:26:38.259Z,0.77
2023-02-26T03:27:38.486Z,0.77
2023-02-26T03:28:38.219Z,0.77
2023-02-26T03:29:38.457Z,0.77
2023-02-26T03:30:37.628Z,0.76
2023-02-26T03:31:37.567Z,0.76
2023-02-26T03:32:38.258Z,0.75
2023-02-26T03:33:38.438Z,0.75
2023-02-26T03:34:38.415Z,0.74
2023-02-26T03:35:39.431Z,0.74
2023-02-26T03:36:38.408Z,0.74
2023-02-26T03:37:38.143Z,0.74
2023-02-26T03:38:38.112Z,0.75
2023-02-26T03:39:38.124Z,0.76
2023-02-26T03:40:38.412Z,0.75
2023-02-26T03:41:38.106Z,0.75
2023-02-26T03:42:38.369Z,0.75
2023-02-26T03:43:38.340Z,0.76
2023-02-26T03:44:38.075Z,0.76
2023-02-26T03:45:38.422Z,0.77
2023-02-26T03:46:38.310Z,0.79
2023-02-26T03:47:38.066Z,0.79
2023-02-26T03:48:38.182Z,0.80
2023-02-26T03:49:38.271Z,0.81
2023-02-26T03:50:38.313Z,0.83
2023-02-26T03:51:38.283Z,0.82
2023-02-26T03:52:38.237Z,0.83
2023-02-26T03:53:37.339Z,0.83
2023-02-26T03:54:38.225Z,0.83
2023-02-26T03:55:38.212Z,0.83
2023-02-26T03:56:37.957Z,0.82
2023-02-26T03:57:39.242Z,0.82
2023-02-26T03:58:37.902Z,0.80
2023-02-26T03:59:37.916Z,0.81
2023-02-26T04:00:38.192Z,0.81
2023-02-26T04:01:38.163Z,0.81
2023-02-26T04:02:38.026Z,0.81
2023-02-26T04:03:37.859Z,0.81
2023-02-26T04:04:38.121Z,0.81
2023-02-26T04:05:38.108Z,0.81
2023-02-26T04:06:38.121Z,0.82
2023-02-26T04:07:37.854Z,0.82
2023-02-26T04:08:37.812Z,0.83
2023-02-26T04:09:38.094Z,0.83
2023-02-26T04:10:37.802Z,0.84
2023-02-26T04:11:38.083Z,0.84
2023-02-26T04:12:38.054Z,0.84
2023-02-26T04:13:37.761Z,0.86
2023-02-26T04:14:37.763Z,0.85
2023-02-26T04:15:38.088Z,0.85
2023-02-26T04:16:37.775Z,0.85
2023-02-26T04:17:38.517Z,0.85
2023-02-26T04:18:37.704Z,0.85
2023-02-26T04:19:37.714Z,0.84
2023-02-26T04:20:37.709Z,0.84
2023-02-26T04:21:37.685Z,0.84
2023-02-26T04:22:37.682Z,0.83
2023-02-26T04:23:37.994Z,0.84
2023-02-26T04:24:37.668Z,0.84
2023-02-26T04:25:37.654Z,0.84
2023-02-26T04:26:36.974Z,0.85
2023-02-26T04:27:37.623Z,0.84
2023-02-26T04:28:37.602Z,0.84
2023-02-26T04:29:37.862Z,0.84
2023-02-26T04:30:37.627Z,0.83
2023-02-26T04:31:36.974Z,0.83
2023-02-26T04:32:37.644Z,0.82
2023-02-26T04:33:37.560Z,0.82
2023-02-26T04:34:37.556Z,0.81
2023-02-26T04:35:36.875Z,0.81
2023-02-26T04:36:37.530Z,0.80
2023-02-26T04:37:37.810Z,0.80
2023-02-26T04:38:36.863Z,0.79
2023-02-26T04:39:37.504Z,0.79
2023-02-26T04:40:37.489Z,0.79
2023-02-26T04:41:37.482Z,0.78
2023-02-26T04:42:36.812Z,0.78
2023-02-26T04:43:37.442Z,0.78
2023-02-26T04:44:36.769Z,0.76
2023-02-26T04:45:37.440Z,0.76
2023-02-26T04:46:37.160Z,0.75
2023-02-26T04:47:37.410Z,0.75
2023-02-26T04:48:37.394Z,0.75
2023-02-26T04:49:36.723Z,0.75
2023-02-26T04:50:37.381Z,0.75
2023-02-26T04:51:37.385Z,0.75
2023-02-26T04:52:37.362Z,0.75
2023-02-26T04:53:37.344Z,0.76
2023-02-26T04:54:37.356Z,0.77
2023-02-26T04:55:36.659Z,0.75
2023-02-26T04:56:36.650Z,0.75
2023-02-26T04:57:37.310Z,0.75
2023-02-26T04:58:36.640Z,0.75
2023-02-26T04:59:36.793Z,0.74
2023-02-26T05:00:37.288Z,0.73
2023-02-26T05:01:36.664Z,0.73
2023-02-26T05:02:37.262Z,0.72
2023-02-26T05:03:37.264Z,0.72
2023-02-26T05:04:36.657Z,0.71
2023-02-26T05:05:37.493Z,0.71
2023-02-26T05:06:36.544Z,0.71
2023-02-26T05:07:37.259Z,0.71
2023-02-26T05:08:36.536Z,0.70
2023-02-26T05:09:36.570Z,0.70
2023-02-26T05:10:37.184Z,0.68
2023-02-26T05:11:37.167Z,0.67
2023-02-26T05:12:36.475Z,0.67
2023-02-26T05:13:37.156Z,0.65
2023-02-26T05:14:36.495Z,0.65
2023-02-26T05:15:36.456Z,0.63
2023-02-26T05:16:37.127Z,0.63
2023-02-26T05:17:37.106Z,0.62
2023-02-26T05:18:37.096Z,0.61
2023-02-26T05:19:37.068Z,0.62
2023-02-26T05:20:36.417Z,0.60
2023-02-26T05:21:36.428Z,0.60
2023-02-26T05:22:36.388Z,0.60
2023-02-26T05:23:36.371Z,0.60
2023-02-26T05:24:37.029Z,0.61
2023-02-26T05:25:36.349Z,0.61
2023-02-26T05:26:37.019Z,0.61
2023-02-26T05:27:37.018Z,0.60
2023-02-26T05:28:37.000Z,0.59
2023-02-26T05:29:36.968Z,0.59
2023-02-26T05:30:37.038Z,0.58
2023-02-26T05:31:36.316Z,0.57
2023-02-26T05:32:36.290Z,0.57
2023-02-26T05:33:36.942Z,0.56
2023-02-26T05:34:36.920Z,0.55
2023-02-26T05:35:36.259Z,0.55
2023-02-26T05:36:36.234Z,0.54
2023-02-26T05:37:36.228Z,0.55
2023-02-26T05:38:36.899Z,0.55
2023-02-26T05:39:36.879Z,0.54
2023-02-26T05:40:36.191Z,0.54
2023-02-26T05:41:36.860Z,0.53
2023-02-26T05:42:36.860Z,0.53
2023-02-26T05:43:36.170Z,0.53
2023-02-26T05:44:36.169Z,0.51
2023-02-26T05:45:36.206Z,0.50
2023-02-26T05:46:36.856Z,0.50
2023-02-26T05:47:36.803Z,0.49
2023-02-26T05:48:36.111Z,0.49
2023-02-26T05:49:36.778Z,0.49
2023-02-26T05:50:36.101Z,0.48
2023-02-26T05:51:36.772Z,0.48
2023-02-26T05:52:36.749Z,0.47
2023-02-26T05:53:36.741Z,0.46
2023-02-26T05:54:38.009Z,0.46
2023-02-26T05:55:36.054Z,0.46
2023-02-26T05:56:36.726Z,0.45
2023-02-26T05:57:36.697Z,0.46
2023-02-26T05:58:35.999Z,0.45
2023-02-26T05:59:36.657Z,0.44
2023-02-26T06:00:35.987Z,0.45
2023-02-26T06:01:36.672Z,0.45
2023-02-26T06:02:36.941Z,0.44
2023-02-26T06:03:36.637Z,0.43
2023-02-26T06:04:36.608Z,0.44
2023-02-26T06:05:36.618Z,0.43
2023-02-26T06:06:35.916Z,0.44
2023-02-26T06:07:36.598Z,0.42
2023-02-26T06:08:35.977Z,0.42
2023-02-26T06:09:35.946Z,0.43
2023-02-26T06:10:35.915Z,0.42
2023-02-26T06:11:35.928Z,0.40
2023-02-26T06:12:35.856Z,0.40
2023-02-26T06:13:35.888Z,0.39
2023-02-26T06:14:36.526Z,0.39
2023-02-26T06:15:35.857Z,0.39
2023-02-26T06:16:36.828Z,0.38
2023-02-26T06:17:36.793Z,0.39
2023-02-26T06:18:36.480Z,0.39
2023-02-26T06:19:36.450Z,0.39
2023-02-26T06:20:36.463Z,0.40
2023-02-26T06:21:35.818Z,0.40
2023-02-26T06:22:36.428Z,0.41
2023-02-26T06:23:35.788Z,0.41
2023-02-26T06:24:35.763Z,0.42
2023-02-26T06:25:36.035Z,0.43
2023-02-26T06:26:36.391Z,0.45
2023-02-26T06:27:35.712Z,0.45
2023-02-26T06:28:35.698Z,0.47
2023-02-26T06:29:36.349Z,0.48
2023-02-26T06:30:36.361Z,0.48
2023-02-26T06:31:35.683Z,0.49
2023-02-26T06:32:36.396Z,0.50
2023-02-26T06:33:36.328Z,0.52
2023-02-26T06:34:35.683Z,0.53
2023-02-26T06:35:36.304Z,0.54
2023-02-26T06:36:36.297Z,0.55
2023-02-26T06:37:36.286Z,0.57
2023-02-26T06:38:35.605Z,0.58
2023-02-26T06:39:35.635Z,0.59
2023-02-26T06:40:36.251Z,0.62
2023-02-26T06:41:36.246Z,0.63
2023-02-26T06:42:36.236Z,0.64
2023-02-26T06:43:35.609Z,0.65
2023-02-26T06:44:35.567Z,0.67
2023-02-26T06:45:36.200Z,0.68
2023-02-26T06:46:36.197Z,0.69
2023-02-26T06:47:36.179Z,0.72
2023-02-26T06:48:36.185Z,0.72
2023-02-26T06:49:35.475Z,0.74
2023-02-26T06:50:35.503Z,0.76
2023-02-26T06:51:36.139Z,0.79
2023-02-26T06:52:36.135Z,0.82
2023-02-26T06:53:36.137Z,0.83
2023-02-26T06:54:35.429Z,0.86
2023-02-26T06:55:36.096Z,0.88
2023-02-26T06:56:36.360Z,0.90
2023-02-26T06:57:35.410Z,0.93
2023-02-26T06:58:36.339Z,0.96
2023-02-26T06:59:36.069Z,1.00
2023-02-26T07:00:36.831Z,1.02
2023-02-26T07:01:36.042Z,1.07
2023-02-26T07:02:36.111Z,1.13
2023-02-26T07:03:36.287Z,1.20
2023-02-26T07:04:36.009Z,1.26
2023-02-26T07:05:37.280Z,1.31
2023-02-26T07:06:36.258Z,1.38
2023-02-26T07:07:35.979Z,1.44
2023-02-26T07:08:36.229Z,1.51
2023-02-26T07:09:35.967Z,1.57
2023-02-26T07:10:36.230Z,1.65
2023-02-26T07:11:44.628Z,1.70
2023-02-26T07:12:36.257Z,1.77
2023-02-26T07:13:36.187Z,1.84
2023-02-26T07:14:36.158Z,1.95
2023-02-26T07:15:35.888Z,2.22
2023-02-26T07:16:36.181Z,2.68
2023-02-26T07:17:36.171Z,3.21
2023-02-26T07:18:37.139Z,3.72
2023-02-26T07:19:36.143Z,4.21
2023-02-26T07:20:36.172Z,4.68
2023-02-26T07:21:36.092Z,5.15
2023-02-26T07:22:36.082Z,5.59
2023-02-26T07:23:36.144Z,6.02
2023-02-26T07:24:36.071Z,6.41
2023-02-26T07:25:35.769Z,6.77
2023-02-26T07:26:36.052Z,7.12
2023-02-26T07:27:35.760Z,7.44
2023-02-26T07:28:35.751Z,7.73
2023-02-26T07:29:36.004Z,8.01
2023-02-26T07:30:36.101Z,8.27
2023-02-26T07:31:35.856Z,8.51
2023-02-26T07:32:35.755Z,8.76
2023-02-26T07:33:35.061Z,8.98
2023-02-26T07:34:35.694Z,9.17
2023-02-26T07:35:35.690Z,9.36
2023-02-26T07:36:35.941Z,9.52
2023-02-26T07:37:35.663Z,9.68
2023-02-26T07:38:35.663Z,9.82
2023-02-26T07:39:35.939Z,9.96
2023-02-26T07:40:35.620Z,10.12
2023-02-26T07:41:35.590Z,10.30
2023-02-26T07:42:35.598Z,10.45
2023-02-26T07:43:35.620Z,10.63
2023-02-26T07:44:35.846Z,10.79
2023-02-26T07:45:35.850Z,10.92
2023-02-26T07:46:35.944Z,11.00
2023-02-26T07:47:35.604Z,11.06
2023-02-26T07:48:35.572Z,11.12
2023-02-26T07:49:35.532Z,11.19
2023-02-26T07:50:35.794Z,11.28
2023-02-26T07:51:35.480Z,11.38
2023-02-26T07:52:35.489Z,11.47
2023-02-26T07:53:35.765Z,11.56
2023-02-26T07:54:35.473Z,11.66
2023-02-26T07:55:35.461Z,11.75
2023-02-26T07:56:35.727Z,11.86
2023-02-26T07:57:35.701Z,11.99
2023-02-26T07:58:35.432Z,12.13
2023-02-26T07:59:35.418Z,12.27
2023-02-26T08:00:35.428Z,12.43
2023-02-26T08:01:35.425Z,12.61
2023-02-26T08:02:35.712Z,12.73
2023-02-26T08:03:35.385Z,12.80
2023-02-26T08:04:35.644Z,12.86
2023-02-26T08:05:35.352Z,12.92
2023-02-26T08:06:35.354Z,13.02
2023-02-26T08:07:35.592Z,13.07
2023-02-26T08:08:35.580Z,13.13
2023-02-26T08:09:35.564Z,13.22
2023-02-26T08:10:35.301Z,13.26
2023-02-26T08:11:35.593Z,13.28
2023-02-26T08:12:35.538Z,13.31
2023-02-26T08:13:35.263Z,13.34
2023-02-26T08:14:35.530Z,13.41
2023-02-26T08:15:35.614Z,13.54
2023-02-26T08:16:35.555Z,13.67
2023-02-26T08:17:35.224Z,13.80
2023-02-26T08:18:35.221Z,13.92
2023-02-26T08:19:35.461Z,14.03
2023-02-26T08:20:35.463Z,14.14
2023-02-26T08:21:35.184Z,14.22
2023-02-26T08:22:35.433Z,14.28
2023-02-26T08:23:35.166Z,14.38
2023-02-26T08:24:35.148Z,14.50
2023-02-26T08:25:35.410Z,14.59
2023-02-26T08:26:35.103Z,14.69
2023-02-26T08:27:35.383Z,14.75
2023-02-26T08:28:34.426Z,14.84
2023-02-26T08:29:34.411Z,14.90
2023-02-26T08:30:34.413Z,14.95
2023-02-26T08:31:35.153Z,15.02
2023-02-26T08:32:35.396Z,15.11
2023-02-26T08:33:34.378Z,15.23
2023-02-26T08:34:35.034Z,15.35
2023-02-26T08:35:34.356Z,15.44
2023-02-26T08:36:34.364Z,15.49
2023-02-26T08:37:36.271Z,15.50
2023-02-26T08:38:35.007Z,15.53
2023-02-26T08:39:34.984Z,15.59
2023-02-26T08:40:34.305Z,15.64
2023-02-26T08:41:34.294Z,15.63
2023-02-26T08:42:34.306Z,15.60
2023-02-26T08:43:34.275Z,15.56
2023-02-26T08:44:34.270Z,15.51
2023-02-26T08:45:34.286Z,15.48
2023-02-26T08:46:34.319Z,15.44
2023-02-26T08:47:39.340Z,15.41
2023-02-26T08:48:34.326Z,15.38
2023-02-26T08:49:34.877Z,15.34
2023-02-26T08:50:34.202Z,15.29
2023-02-26T08:51:34.209Z,15.27
2023-02-26T08:52:34.849Z,15.27
2023-02-26T08:53:34.170Z,15.28
2023-02-26T08:54:34.155Z,15.31
2023-02-26T08:55:34.129Z,15.38
2023-02-26T08:56:34.802Z,15.46
2023-02-26T08:57:34.112Z,15.53
2023-02-26T08:58:34.779Z,15.61
2023-02-26T08:59:34.119Z,15.66
2023-02-26T09:00:34.761Z,15.69
2023-02-26T09:01:34.814Z,15.73
2023-02-26T09:02:34.117Z,15.76
2023-02-26T09:03:34.784Z,15.81
2023-02-26T09:04:34.712Z,15.84
2023-02-26T09:05:34.051Z,15.87
2023-02-26T09:06:34.691Z,15.87
2023-02-26T09:07:34.043Z,15.85
2023-02-26T09:08:34.698Z,15.83
2023-02-26T09:09:34.013Z,15.80
2023-02-26T09:10:33.974Z,15.72
2023-02-26T09:11:34.646Z,15.63
2023-02-26T09:12:34.603Z,15.61
2023-02-26T09:13:33.970Z,15.58
2023-02-26T09:14:33.969Z,15.51
2023-02-26T09:15:35.848Z,15.45
2023-02-26T09:16:34.593Z,15.44
2023-02-26T09:17:33.944Z,15.44
2023-02-26T09:18:34.565Z,15.48
2023-02-26T09:19:33.885Z,15.51
2023-02-26T09:20:34.548Z,15.54
2023-02-26T09:21:34.530Z,15.56
2023-02-26T09:22:33.867Z,15.58
2023-02-26T09:23:33.835Z,15.61
2023-02-26T09:24:33.881Z,15.63
2023-02-26T09:25:33.842Z,15.63
2023-02-26T09:26:34.486Z,15.62
2023-02-26T09:27:34.455Z,15.62
2023-02-26T09:28:34.463Z,15.63
2023-02-26T09:29:34.472Z,15.65
2023-02-26T09:30:34.440Z,15.64
2023-02-26T09:31:34.647Z,15.61
2023-02-26T09:32:34.509Z,15.55
2023-02-26T09:33:34.405Z,15.48
2023-02-26T09:34:33.709Z,15.38
2023-02-26T09:35:34.390Z,15.28
2023-02-26T09:36:34.400Z,15.17
2023-02-26T09:37:34.344Z,15.08
2023-02-26T09:38:33.660Z,14.99
2023-02-26T09:39:34.340Z,14.91
2023-02-26T09:40:33.670Z,14.84
2023-02-26T09:41:34.330Z,14.76
2023-02-26T09:42:34.292Z,14.65
2023-02-26T09:43:33.664Z,14.49
2023-02-26T09:44:34.288Z,14.35
2023-02-26T09:45:33.660Z,13.94
2023-02-26T09:46:33.589Z,13.42
2023-02-26T09:47:34.238Z,13.12
2023-02-26T09:48:34.239Z,13.16
2023-02-26T09:49:33.617Z,13.16
2023-02-26T09:50:34.230Z,13.15
2023-02-26T09:51:34.212Z,13.13
2023-02-26T09:52:33.570Z,13.08
2023-02-26T09:53:34.193Z,12.98
2023-02-26T09:54:34.184Z,12.65
2023-02-26T09:55:34.171Z,12.51
2023-02-26T09:56:34.159Z,12.43
2023-02-26T09:57:34.138Z,12.24
2023-02-26T09:58:34.134Z,11.96
2023-02-26T09:59:33.490Z,11.88
2023-02-26T10:00:34.120Z,11.80
2023-02-26T10:01:37.258Z,11.77
2023-02-26T10:02:34.080Z,11.59
2023-02-26T10:03:33.469Z,11.60
2023-02-26T10:04:34.158Z,11.66
2023-02-26T10:05:34.067Z,11.71
2023-02-26T10:06:33.527Z,11.77
2023-02-26T10:07:33.392Z,11.65
2023-02-26T10:08:34.066Z,11.39
2023-02-26T10:09:33.368Z,11.11
2023-02-26T10:10:34.043Z,11.09
2023-02-26T10:11:34.012Z,10.87
2023-02-26T10:12:33.591Z,10.82
2023-02-26T10:13:35.437Z,10.71
2023-02-26T10:14:34.122Z,10.69
2023-02-26T10:15:33.583Z,10.53
2023-02-26T10:16:34.463Z,10.63
2023-02-26T10:17:35.604Z,10.60
2023-02-26T10:18:34.879Z,10.47
2023-02-26T10:19:33.312Z,10.48
2023-02-26T10:20:33.357Z,10.33
2023-02-26T10:21:33.412Z,10.14
2023-02-26T10:22:33.582Z,9.91
2023-02-26T10:23:33.484Z,9.93
2023-02-26T10:24:33.863Z,9.96
2023-02-26T10:25:33.174Z,9.95
2023-02-26T10:26:33.848Z,10.00
2023-02-26T10:27:33.301Z,9.80
2023-02-26T10:28:33.791Z,9.76
2023-02-26T10:29:33.801Z,9.45
2023-02-26T10:30:33.812Z,9.14
2023-02-26T10:31:33.863Z,8.87
2023-02-26T10:32:33.215Z,8.77
2023-02-26T10:33:33.779Z,8.78
2023-02-26T10:34:33.747Z,8.79
2023-02-26T10:35:33.739Z,8.73
2023-02-26T10:36:33.726Z,8.64
2023-02-26T10:37:33.040Z,8.61
2023-02-26T10:38:33.686Z,8.65
2023-02-26T10:39:33.699Z,8.53
2023-02-26T10:40:33.682Z,8.49
2023-02-26T10:41:33.667Z,8.47
2023-02-26T10:42:33.008Z,8.43
2023-02-26T10:43:33.632Z,8.36
2023-02-26T10:44:32.983Z,8.31
2023-02-26T10:45:33.685Z,8.27
2023-02-26T10:46:33.616Z,8.35
2023-02-26T10:47:32.933Z,8.26
2023-02-26T10:48:33.579Z,8.16
2023-02-26T10:49:33.860Z,8.04
2023-02-26T10:50:33.576Z,7.93
2023-02-26T10:51:33.576Z,7.85
2023-02-26T10:52:33.554Z,7.94
2023-02-26T10:53:33.518Z,7.95
2023-02-26T10:54:32.850Z,7.92
2023-02-26T10:55:33.517Z,7.93
2023-02-26T10:56:32.833Z,7.88
2023-02-26T10:57:32.823Z,7.85
2023-02-26T10:58:33.459Z,7.91
2023-02-26T10:59:33.468Z,7.92
2023-02-26T11:00:32.818Z,7.93
2023-02-26T11:01:33.552Z,7.98
2023-02-26T11:02:33.523Z,8.01
2023-02-26T11:03:32.802Z,8.00
2023-02-26T11:04:32.872Z,7.99
2023-02-26T11:05:32.741Z,7.93
2023-02-26T11:06:33.406Z,7.94
2023-02-26T11:07:33.386Z,7.99
2023-02-26T11:08:33.354Z,7.98
2023-02-26T11:09:34.654Z,7.90
2023-02-26T11:10:33.356Z,7.80
2023-02-26T11:11:33.625Z,7.70
2023-02-26T11:12:33.336Z,7.65
2023-02-26T11:13:33.305Z,7.60
2023-02-26T11:14:33.567Z,7.61
2023-02-26T11:15:33.304Z,7.59
2023-02-26T11:16:33.573Z,7.59
2023-02-26T11:17:33.581Z,7.52
2023-02-26T11:18:32.618Z,7.49
2023-02-26T11:19:32.621Z,7.47
2023-02-26T11:20:33.267Z,7.37
2023-02-26T11:21:33.417Z,7.29
2023-02-26T11:22:33.283Z,7.20
2023-02-26T11:23:33.198Z,7.14
2023-02-26T11:24:33.209Z,7.09
2023-02-26T11:25:35.650Z,6.99
2023-02-26T11:26:33.459Z,6.90
2023-02-26T11:27:33.440Z,6.81
2023-02-26T11:28:33.152Z,6.72
2023-02-26T11:29:33.153Z,6.64
2023-02-26T11:30:33.209Z,6.65
2023-02-26T11:31:33.295Z,6.60
2023-02-26T11:32:33.442Z,6.56
2023-02-26T11:33:33.472Z,6.54
2023-02-26T11:34:33.396Z,6.55
2023-02-26T11:35:33.096Z,6.55
2023-02-26T11:36:33.356Z,6.55
2023-02-26T11:37:34.333Z,6.60
2023-02-26T11:38:33.086Z,6.66
2023-02-26T11:39:33.371Z,6.71
2023-02-26T11:40:33.035Z,6.71
2023-02-26T11:41:33.035Z,6.65
2023-02-26T11:42:33.292Z,6.61
2023-02-26T11:43:33.013Z,6.57
2023-02-26T11:44:33.281Z,6.57
2023-02-26T11:45:33.032Z,6.61
2023-02-26T11:46:33.013Z,6.64
2023-02-26T11:47:33.244Z,6.67
2023-02-26T11:48:32.953Z,6.73
2023-02-26T11:49:32.937Z,6.77
2023-02-26T11:50:32.946Z,6.79
2023-02-26T11:51:32.382Z,6.82
2023-02-26T11:52:33.722Z,6.86
2023-02-26T11:53:32.908Z,6.91
2023-02-26T11:54:32.864Z,6.97
2023-02-26T11:55:32.873Z,7.03
2023-02-26T11:56:32.870Z,7.09
2023-02-26T11:57:32.852Z,7.16
2023-02-26T11:58:32.845Z,7.21
2023-02-26T11:59:32.819Z,7.26
2023-02-26T12:00:32.837Z,7.28
2023-02-26T12:01:33.064Z,7.32
2023-02-26T12:02:33.084Z,7.34
2023-02-26T12:03:33.641Z,7.36
2023-02-26T12:04:32.208Z,7.31
2023-02-26T12:05:32.792Z,7.32
2023-02-26T12:06:33.100Z,7.33
2023-02-26T12:07:33.015Z,7.36
2023-02-26T12:08:32.981Z,7.38
2023-02-26T12:09:32.705Z,7.39
2023-02-26T12:10:32.720Z,7.42
2023-02-26T12:11:32.115Z,7.45
2023-02-26T12:12:33.367Z,7.47
2023-02-26T12:13:32.674Z,7.50
2023-02-26T12:14:33.034Z,7.52
2023-02-26T12:15:32.661Z,7.56
2023-02-26T12:16:32.959Z,7.62
2023-02-26T12:17:32.873Z,7.65
2023-02-26T12:18:33.092Z,7.67
2023-02-26T12:19:33.000Z,7.67
2023-02-26T12:20:32.640Z,7.67
2023-02-26T12:21:32.654Z,7.71
2023-02-26T12:22:32.584Z,7.80
2023-02-26T12:23:32.601Z,7.79
2023-02-26T12:24:32.541Z,7.84
2023-02-26T12:25:32.738Z,7.90
2023-02-26T12:26:32.549Z,7.86
2023-02-26T12:27:32.973Z,7.89
2023-02-26T12:28:33.514Z,7.93
2023-02-26T12:29:32.845Z,7.96
2023-02-26T12:30:32.518Z,7.99
2023-02-26T12:31:32.865Z,8.02
2023-02-26T12:32:31.920Z,8.10
2023-02-26T12:33:32.736Z,8.16
2023-02-26T12:34:32.454Z,8.25
2023-02-26T12:35:31.776Z,8.31
2023-02-26T12:36:47.628Z,8.37
2023-02-26T12:37:34.236Z,8.36
2023-02-26T12:38:32.474Z,8.32
2023-02-26T12:39:32.402Z,8.25
2023-02-26T12:40:32.402Z,8.14
2023-02-26T12:41:32.630Z,8.06
2023-02-26T12:42:32.383Z,8.01
2023-02-26T12:43:33.598Z,7.97
2023-02-26T12:44:32.372Z,7.93
2023-02-26T12:45:32.635Z,7.90
2023-02-26T12:46:32.335Z,7.86
2023-02-26T12:47:32.350Z,7.82
2023-02-26T12:48:31.654Z,7.78
2023-02-26T12:49:32.593Z,7.73
2023-02-26T12:50:32.273Z,7.69
2023-02-26T12:51:32.342Z,7.64
2023-02-26T12:52:32.281Z,7.60
2023-02-26T12:53:33.648Z,7.56
2023-02-26T12:54:34.244Z,7.51
2023-02-26T12:55:32.514Z,7.48
2023-02-26T12:56:32.525Z,7.46
2023-02-26T12:57:32.370Z,7.45
2023-02-26T12:58:32.211Z,7.45
2023-02-26T12:59:31.877Z,7.46
2023-02-26T13:00:36.907Z,7.47
2023-02-26T13:01:33.892Z,7.48
2023-02-26T13:02:32.266Z,7.48
2023-02-26T13:03:32.541Z,7.50
2023-02-26T13:04:32.722Z,7.52
2023-02-26T13:05:31.826Z,7.57
2023-02-26T13:06:32.382Z,7.60
2023-02-26T13:07:31.885Z,7.66
2023-02-26T13:08:32.346Z,7.73
2023-02-26T13:09:36.254Z,7.74
2023-02-26T13:10:32.426Z,7.74
2023-02-26T13:11:33.150Z,7.73
2023-02-26T13:12:33.356Z,7.72
2023-02-26T13:13:32.200Z,7.71
2023-02-26T13:14:31.887Z,7.64
2023-02-26T13:15:32.380Z,7.62